Terminal Aerodrome Forecast
Issued by NWS

Home | Current Version | Previous Version | Text Only | Print | Product List | Glossary On
Versions: 1 2 3 4 5 6 7 8 9 10 11 12 13 14 15 16 17 18 19
000
FTUS43 KGRB 292345 AAA
TAFRHI
TAF AMD
KRHI 292345Z 3000/3024 27009KT 6SM -SHRA SCT030 OVC050
      TEMPO 3000/3002 2SM -SHRA BR BKN025
     FM300300 27007KT P6SM SCT025 BKN050
     FM300600 27008KT P6SM BKN025 BKN040
     FM301600 27011G18KT P6SM -SHRA BKN022 BKN040=

USA.gov is the U.S. government's official web portal to all federal, state and local government web resources and services.